sensor_id;sensor_type;location;lat;lon;timestamp;pressure;altitude;pressure_sealevel;temperature;humidity
12879;BME280;20617;49.476;10.986;2024-03-22T00:01:24;98979.38;;;9.93;100.00
12879;BME280;20617;49.476;10.986;2024-03-22T00:03:25;98975.09;;;9.90;100.00
12879;BME280;20617;49.476;10.986;2024-03-22T00:05:28;98976.03;;;9.88;100.00
12879;BME280;20617;49.476;10.986;2024-03-22T00:07:31;98965.81;;;9.82;100.00
12879;BME280;20617;49.476;10.986;2024-03-22T00:09:31;98974.56;;;9.79;100.00
12879;BME280;20617;49.476;10.986;2024-03-22T00:11:34;98969.41;;;9.78;100.00
12879;BME280;20617;49.476;10.986;2024-03-22T00:13:35;98972.88;;;9.77;100.00
12879;BME280;20617;49.476;10.986;2024-03-22T00:15:38;98973.72;;;9.77;100.00
12879;BME280;20617;49.476;10.986;2024-03-22T00:17:39;98962.66;;;9.70;100.00
12879;BME280;20617;49.476;10.986;2024-03-22T00:19:40;98962.75;;;9.67;100.00
12879;BME280;20617;49.476;10.986;2024-03-22T00:21:42;98956.78;;;9.64;100.00
12879;BME280;20617;49.476;10.986;2024-03-22T00:23:43;98953.41;;;9.60;100.00
12879;BME280;20617;49.476;10.986;2024-03-22T00:25:44;98955.31;;;9.53;100.00
12879;BME280;20617;49.476;10.986;2024-03-22T00:27:44;98951.91;;;9.51;100.00
12879;BME280;20617;49.476;10.986;2024-03-22T00:29:45;98954.53;;;9.50;100.00
12879;BME280;20617;49.476;10.986;2024-03-22T00:31:48;98958.03;;;9.49;100.00
12879;BME280;20617;49.476;10.986;2024-03-22T00:33:49;98947.72;;;9.46;100.00
12879;BME280;20617;49.476;10.986;2024-03-22T00:35:50;98950.44;;;9.41;100.00
12879;BME280;20617;49.476;10.986;2024-03-22T00:37:53;98949.47;;;9.45;100.00
12879;BME280;20617;49.476;10.986;2024-03-22T00:39:53;98943.41;;;9.45;100.00
12879;BME280;20617;49.476;10.986;2024-03-22T00:41:55;98939.97;;;9.44;100.00
12879;BME280;20617;49.476;10.986;2024-03-22T00:43:56;98940.81;;;9.45;100.00
12879;BME280;20617;49.476;10.986;2024-03-22T00:45:57;98939.97;;;9.44;100.00
12879;BME280;20617;49.476;10.986;2024-03-22T00:48:02;98941.69;;;9.45;100.00
12879;BME280;20617;49.476;10.986;2024-03-22T00:50:03;98939.13;;;9.44;100.00
12879;BME280;20617;49.476;10.986;2024-03-22T00:52:04;98943.47;;;9.43;100.00
12879;BME280;20617;49.476;10.986;2024-03-22T00:54:05;98940.00;;;9.43;100.00
12879;BME280;20617;49.476;10.986;2024-03-22T00:56:06;98940.00;;;9.43;100.00
12879;BME280;20617;49.476;10.986;2024-03-22T00:58:07;98945.25;;;9.41;100.00
12879;BME280;20617;49.476;10.986;2024-03-22T01:00:10;98940.00;;;9.43;100.00
12879;BME280;20617;49.476;10.986;2024-03-22T01:02:10;98929.72;;;9.40;100.00
12879;BME280;20617;49.476;10.986;2024-03-22T01:04:14;98922.84;;;9.37;100.00
12879;BME280;20617;49.476;10.986;2024-03-22T01:06:15;98922.88;;;9.36;100.00
12879;BME280;20617;49.476;10.986;2024-03-22T01:08:16;98925.53;;;9.34;100.00
12879;BME280;20617;49.476;10.986;2024-03-22T01:10:16;98912.69;;;9.28;100.00
12879;BME280;20617;49.476;10.986;2024-03-22T01:12:18;98917.09;;;9.24;100.00
12879;BME280;20617;49.476;10.986;2024-03-22T01:14:19;98911.09;;;9.22;100.00
12879;BME280;20617;49.476;10.986;2024-03-22T01:16:20;98911.22;;;9.18;100.00
12879;BME280;20617;49.476;10.986;2024-03-22T01:18:20;98916.41;;;9.18;100.00
12879;BME280;20617;49.476;10.986;2024-03-22T01:20:24;98918.16;;;9.17;100.00
12879;BME280;20617;49.476;10.986;2024-03-22T01:22:26;98911.31;;;9.13;100.00
12879;BME280;20617;49.476;10.986;2024-03-22T01:24:27;98908.81;;;9.10;100.00
12879;BME280;20617;49.476;10.986;2024-03-22T01:26:27;98914.91;;;9.09;100.00
12879;BME280;20617;49.476;10.986;2024-03-22T01:28:28;98914.91;;;9.09;100.00
12879;BME280;20617;49.476;10.986;2024-03-22T01:30:29;98915.91;;;9.03;100.00
12879;BME280;20617;49.476;10.986;2024-03-22T01:32:31;98916.88;;;8.99;100.00
12879;BME280;20617;49.476;10.986;2024-03-22T01:34:32;98923.88;;;8.96;100.00
12879;BME280;20617;49.476;10.986;2024-03-22T01:36:37;98920.50;;;8.94;100.00
12879;BME280;20617;49.476;10.986;2024-03-22T01:38:38;98922.25;;;8.92;100.00
12879;BME280;20617;49.476;10.986;2024-03-22T01:40:39;98928.28;;;8.94;100.00
12879;BME280;20617;49.476;10.986;2024-03-22T01:42:39;98927.38;;;8.95;100.00
12879;BME280;20617;49.476;10.986;2024-03-22T01:44:42;98925.53;;;9.00;100.00
12879;BME280;20617;49.476;10.986;2024-03-22T01:46:44;98921.22;;;8.99;100.00
12879;BME280;20617;49.476;10.986;2024-03-22T01:48:45;98922.88;;;9.01;100.00
12879;BME280;20617;49.476;10.986;2024-03-22T01:50:49;98921.16;;;9.02;100.00
12879;BME280;20617;49.476;10.986;2024-03-22T01:52:53;98921.16;;;9.02;100.00
12879;BME280;20617;49.476;10.986;2024-03-22T01:54:54;98922.88;;;9.01;100.00
12879;BME280;20617;49.476;10.986;2024-03-22T01:56:54;98918.59;;;9.00;100.00
12879;BME280;20617;49.476;10.986;2024-03-22T01:58:58;98910.97;;;8.93;100.00
12879;BME280;20617;49.476;10.986;2024-03-22T02:00:58;98910.09;;;8.94;100.00
12879;BME280;20617;49.476;10.986;2024-03-22T02:02:59;98910.94;;;8.94;100.00
12879;BME280;20617;49.476;10.986;2024-03-22T02:05:11;98907.44;;;8.95;100.00
12879;BME280;20617;49.476;10.986;2024-03-22T02:07:12;98898.00;;;8.93;100.00
12879;BME280;20617;49.476;10.986;2024-03-22T02:09:18;98887.59;;;8.93;100.00
12879;BME280;20617;49.476;10.986;2024-03-22T02:11:18;98890.28;;;8.90;100.00
12879;BME280;20617;49.476;10.986;2024-03-22T02:13:23;98885.09;;;8.90;100.00
12879;BME280;20617;49.476;10.986;2024-03-22T02:15:24;98890.28;;;8.90;100.00
12879;BME280;20617;49.476;10.986;2024-03-22T02:17:25;98869.66;;;8.85;100.00
12879;BME280;20617;49.476;10.986;2024-03-22T02:19:27;98865.31;;;8.84;100.00
12879;BME280;20617;49.476;10.986;2024-03-22T02:21:28;98866.28;;;8.81;100.00
12879;BME280;20617;49.476;10.986;2024-03-22T02:23:34;98866.22;;;8.83;100.00
12879;BME280;20617;49.476;10.986;2024-03-22T02:25:35;98871.47;;;8.81;100.00
12879;BME280;20617;49.476;10.986;2024-03-22T02:27:36;98878.34;;;8.82;100.00
12879;BME280;20617;49.476;10.986;2024-03-22T02:29:37;98874.91;;;8.82;100.00
12879;BME280;20617;49.476;10.986;2024-03-22T02:31:38;98868.06;;;8.79;100.00
12879;BME280;20617;49.476;10.986;2024-03-22T02:33:38;98862.84;;;8.79;100.00
12879;BME280;20617;49.476;10.986;2024-03-22T02:35:40;98859.53;;;8.74;100.00
12879;BME280;20617;49.476;10.986;2024-03-22T02:37:42;98863.16;;;8.67;100.00
12879;BME280;20617;49.476;10.986;2024-03-22T02:39:47;98851.13;;;8.65;100.00
12879;BME280;20617;49.476;10.986;2024-03-22T02:41:47;98858.16;;;8.59;100.00
12879;BME280;20617;49.476;10.986;2024-03-22T02:43:49;98855.72;;;8.53;100.00
12879;BME280;20617;49.476;10.986;2024-03-22T02:45:54;98856.63;;;8.51;100.00
12879;BME280;20617;49.476;10.986;2024-03-22T02:47:55;98851.59;;;8.45;100.00
12879;BME280;20617;49.476;10.986;2024-03-22T02:49:56;98852.53;;;8.42;100.00
12879;BME280;20617;49.476;10.986;2024-03-22T02:51:57;98844.94;;;8.31;100.00
12879;BME280;20617;49.476;10.986;2024-03-22T02:53:59;98840.59;;;8.32;100.00
12879;BME280;20617;49.476;10.986;2024-03-22T02:56:03;98837.16;;;8.33;100.00
12879;BME280;20617;49.476;10.986;2024-03-22T02:58:05;98835.50;;;8.29;100.00
12879;BME280;20617;49.476;10.986;2024-03-22T03:00:07;98849.34;;;8.29;100.00
12879;BME280;20617;49.476;10.986;2024-03-22T03:02:08;98840.69;;;8.29;100.00
12879;BME280;20617;49.476;10.986;2024-03-22T03:04:10;98839.84;;;8.28;100.00
12879;BME280;20617;49.476;10.986;2024-03-22T03:06:10;98838.16;;;8.26;100.00
12879;BME280;20617;49.476;10.986;2024-03-22T03:08:12;98833.84;;;8.26;100.00
12879;BME280;20617;49.476;10.986;2024-03-22T03:10:16;98830.38;;;8.27;100.00
12879;BME280;20617;49.476;10.986;2024-03-22T03:12:20;98830.38;;;8.27;100.00
12879;BME280;20617;49.476;10.986;2024-03-22T03:14:20;98826.16;;;8.23;100.00
12879;BME280;20617;49.476;10.986;2024-03-22T03:16:21;98823.56;;;8.22;100.00
12879;BME280;20617;49.476;10.986;2024-03-22T03:18:22;98815.88;;;8.17;100.00
12879;BME280;20617;49.476;10.986;2024-03-22T03:20:25;98828.91;;;8.15;100.00
12879;BME280;20617;49.476;10.986;2024-03-22T03:22:26;98822.97;;;8.10;100.00
12879;BME280;20617;49.476;10.986;2024-03-22T03:24:27;98831.59;;;8.11;100.00
12879;BME280;20617;49.476;10.986;2024-03-22T03:26:28;98824.00;;;8.03;100.00
12879;BME280;20617;49.476;10.986;2024-03-22T03:28:31;98826.56;;;8.05;100.00
12879;BME280;20617;49.476;10.986;2024-03-22T03:30:34;98833.56;;;8.00;100.00
12879;BME280;20617;49.476;10.986;2024-03-22T03:32:36;98825.97;;;7.92;100.00
12879;BME280;20617;49.476;10.986;2024-03-22T03:34:37;98833.75;;;7.92;100.00
12879;BME280;20617;49.476;10.986;2024-03-22T03:36:37;98830.41;;;7.88;100.00
12879;BME280;20617;49.476;10.986;2024-03-22T03:38:38;98834.69;;;7.88;100.00
12879;BME280;20617;49.476;10.986;2024-03-22T03:40:40;98828.66;;;7.87;100.00
12879;BME280;20617;49.476;10.986;2024-03-22T03:42:42;98827.88;;;7.85;100.00
12879;BME280;20617;49.476;10.986;2024-03-22T03:44:45;98820.13;;;7.84;100.00
12879;BME280;20617;49.476;10.986;2024-03-22T03:46:46;98825.31;;;7.82;100.00
12879;BME280;20617;49.476;10.986;2024-03-22T03:48:47;98821.94;;;7.80;100.00
12879;BME280;20617;49.476;10.986;2024-03-22T03:50:52;98819.34;;;7.79;100.00
12879;BME280;20617;49.476;10.986;2024-03-22T03:52:52;98823.00;;;7.70;100.00
12879;BME280;20617;49.476;10.986;2024-03-22T03:54:53;98829.16;;;7.64;100.00
12879;BME280;20617;49.476;10.986;2024-03-22T03:56:54;98827.41;;;7.65;100.00
12879;BME280;20617;49.476;10.986;2024-03-22T03:58:55;98830.91;;;7.64;100.00
12879;BME280;20617;49.476;10.986;2024-03-22T04:01:05;98823.06;;;7.67;100.00
12879;BME280;20617;49.476;10.986;2024-03-22T04:03:05;98823.97;;;7.66;100.00
12879;BME280;20617;49.476;10.986;2024-03-22T04:05:09;98823.03;;;7.68;100.00
12879;BME280;20617;49.476;10.986;2024-03-22T04:07:09;98817.88;;;7.67;100.00
12879;BME280;20617;49.476;10.986;2024-03-22T04:09:10;98816.19;;;7.66;100.00
12879;BME280;20617;49.476;10.986;2024-03-22T04:11:11;98826.47;;;7.69;100.00
12879;BME280;20617;49.476;10.986;2024-03-22T04:13:12;98828.16;;;7.71;100.00
12879;BME280;20617;49.476;10.986;2024-03-22T04:15:13;98823.81;;;7.72;100.00
12879;BME280;20617;49.476;10.986;2024-03-22T04:17:18;98822.97;;;7.71;100.00
12879;BME280;20617;49.476;10.986;2024-03-22T04:19:19;98823.00;;;7.70;100.00
12879;BME280;20617;49.476;10.986;2024-03-22T04:21:21;98810.94;;;7.69;100.00
12879;BME280;20617;49.476;10.986;2024-03-22T04:23:22;98815.22;;;7.70;100.00
12879;BME280;20617;49.476;10.986;2024-03-22T04:25:23;98810.94;;;7.69;100.00
12879;BME280;20617;49.476;10.986;2024-03-22T04:27:24;98809.25;;;7.66;100.00
12879;BME280;20617;49.476;10.986;2024-03-22T04:29:25;98811.88;;;7.65;100.00
12879;BME280;20617;49.476;10.986;2024-03-22T04:31:25;98810.16;;;7.65;100.00
12879;BME280;20617;49.476;10.986;2024-03-22T04:33:30;98810.09;;;7.67;100.00
12879;BME280;20617;49.476;10.986;2024-03-22T04:35:31;98815.34;;;7.64;100.00
12879;BME280;20617;49.476;10.986;2024-03-22T04:37:32;98812.75;;;7.65;100.00
12879;BME280;20617;49.476;10.986;2024-03-22T04:39:33;98817.06;;;7.65;100.00
12879;BME280;20617;49.476;10.986;2024-03-22T04:41:33;98820.53;;;7.64;100.00
12879;BME280;20617;49.476;10.986;2024-03-22T04:43:34;98818.00;;;7.62;100.00
12879;BME280;20617;49.476;10.986;2024-03-22T04:45:35;98823.25;;;7.59;100.00
12879;BME280;20617;49.476;10.986;2024-03-22T04:47:36;98818.09;;;7.56;100.00
12879;BME280;20617;49.476;10.986;2024-03-22T04:49:39;98827.53;;;7.60;100.00
12879;BME280;20617;49.476;10.986;2024-03-22T04:51:40;98819.75;;;7.60;100.00
12879;BME280;20617;49.476;10.986;2024-03-22T04:53:42;98817.25;;;7.56;100.00
12879;BME280;20617;49.476;10.986;2024-03-22T04:55:42;98818.16;;;7.55;100.00
12879;BME280;20617;49.476;10.986;2024-03-22T04:57:43;98818.97;;;7.57;100.00
12879;BME280;20617;49.476;10.986;2024-03-22T04:59:44;98824.09;;;7.60;100.00
12879;BME280;20617;49.476;10.986;2024-03-22T05:01:45;98817.94;;;7.64;100.00
12879;BME280;20617;49.476;10.986;2024-03-22T05:03:47;98813.59;;;7.66;100.00
12879;BME280;20617;49.476;10.986;2024-03-22T05:05:51;98805.88;;;7.63;100.00
12879;BME280;20617;49.476;10.986;2024-03-22T05:07:51;98808.53;;;7.60;100.00
12879;BME280;20617;49.476;10.986;2024-03-22T05:09:52;98806.03;;;7.57;100.00
12879;BME280;20617;49.476;10.986;2024-03-22T05:11:55;98802.59;;;7.55;100.00
12879;BME280;20617;49.476;10.986;2024-03-22T05:13:56;98802.72;;;7.48;100.00
12879;BME280;20617;49.476;10.986;2024-03-22T05:15:57;98807.16;;;7.43;100.00
12879;BME280;20617;49.476;10.986;2024-03-22T05:17:58;98802.88;;;7.42;100.00
12879;BME280;20617;49.476;10.986;2024-03-22T05:19:59;98800.28;;;7.41;100.00
12879;BME280;20617;49.476;10.986;2024-03-22T05:22:03;98796.91;;;7.39;100.00
12879;BME280;20617;49.476;10.986;2024-03-22T05:24:04;98796.91;;;7.37;100.00
12879;BME280;20617;49.476;10.986;2024-03-22T05:26:05;98798.59;;;7.38;100.00
12879;BME280;20617;49.476;10.986;2024-03-22T05:28:05;98790.00;;;7.38;100.00
12879;BME280;20617;49.476;10.986;2024-03-22T05:30:07;98795.13;;;7.41;100.00
12879;BME280;20617;49.476;10.986;2024-03-22T05:32:08;98795.09;;;7.42;100.00
12879;BME280;20617;49.476;10.986;2024-03-22T05:34:09;98784.66;;;7.45;100.00
12879;BME280;20617;49.476;10.986;2024-03-22T05:36:09;98786.38;;;7.46;100.00
12879;BME280;20617;49.476;10.986;2024-03-22T05:38:15;98775.09;;;7.49;100.00
12879;BME280;20617;49.476;10.986;2024-03-22T05:40:16;98772.50;;;7.47;100.00
12879;BME280;20617;49.476;10.986;2024-03-22T05:42:17;98768.22;;;7.46;100.00
12879;BME280;20617;49.476;10.986;2024-03-22T05:44:18;98768.22;;;7.48;100.00
12879;BME280;20617;49.476;10.986;2024-03-22T05:46:19;98775.09;;;7.49;100.00
12879;BME280;20617;49.476;10.986;2024-03-22T05:48:22;98769.88;;;7.51;100.00
12879;BME280;20617;49.476;10.986;2024-03-22T05:50:23;98761.22;;;7.52;100.00
12879;BME280;20617;49.476;10.986;2024-03-22T05:52:23;98764.72;;;7.49;100.00
12879;BME280;20617;49.476;10.986;2024-03-22T05:54:27;98762.97;;;7.49;100.00
12879;BME280;20617;49.476;10.986;2024-03-22T05:56:28;98759.53;;;7.51;100.00
12879;BME280;20617;49.476;10.986;2024-03-22T05:58:28;98751.78;;;7.49;100.00
12879;BME280;20617;49.476;10.986;2024-03-22T06:00:29;98756.06;;;7.50;100.00
12879;BME280;20617;49.476;10.986;2024-03-22T06:02:30;98757.03;;;7.46;100.00
12879;BME280;20617;49.476;10.986;2024-03-22T06:04:31;98757.84;;;7.48;100.00
12879;BME280;20617;49.476;10.986;2024-03-22T06:06:33;98756.19;;;7.45;100.00
12879;BME280;20617;49.476;10.986;2024-03-22T06:08:34;98754.34;;;7.51;100.00
12879;BME280;20617;49.476;10.986;2024-03-22T06:10:37;98752.56;;;7.53;100.00
12879;BME280;20617;49.476;10.986;2024-03-22T06:12:39;98753.31;;;7.56;100.00
12879;BME280;20617;49.476;10.986;2024-03-22T06:14:40;98744.63;;;7.60;100.00
12879;BME280;20617;49.476;10.986;2024-03-22T06:16:41;98738.53;;;7.61;100.00
12879;BME280;20617;49.476;10.986;2024-03-22T06:18:42;98734.13;;;7.66;100.00
12879;BME280;20617;49.476;10.986;2024-03-22T06:20:43;98732.31;;;7.70;100.00
12879;BME280;20617;49.476;10.986;2024-03-22T06:22:45;98726.19;;;7.72;100.00
12879;BME280;20617;49.476;10.986;2024-03-22T06:24:45;98720.03;;;7.78;100.00
12879;BME280;20617;49.476;10.986;2024-03-22T06:26:49;98728.56;;;7.83;100.00
12879;BME280;20617;49.476;10.986;2024-03-22T06:28:50;98722.63;;;7.78;100.00
12879;BME280;20617;49.476;10.986;2024-03-22T06:30:50;98718.09;;;7.86;100.00
12879;BME280;20617;49.476;10.986;2024-03-22T06:32:51;98719.94;;;7.83;100.00
12879;BME280;20617;49.476;10.986;2024-03-22T06:34:52;98718.94;;;7.88;100.00
12879;BME280;20617;49.476;10.986;2024-03-22T06:36:53;98715.38;;;7.92;100.00
12879;BME280;20617;49.476;10.986;2024-03-22T06:38:54;98720.41;;;7.99;100.00
12879;BME280;20617;49.476;10.986;2024-03-22T06:40:55;98717.66;;;8.05;100.00
12879;BME280;20617;49.476;10.986;2024-03-22T06:42:58;98714.97;;;8.08;100.00
12879;BME280;20617;49.476;10.986;2024-03-22T06:45:02;98720.75;;;8.19;100.00
12879;BME280;20617;49.476;10.986;2024-03-22T06:47:03;98721.44;;;8.27;100.00
12879;BME280;20617;49.476;10.986;2024-03-22T06:49:03;98712.56;;;8.36;100.00
12879;BME280;20617;49.476;10.986;2024-03-22T06:51:04;98716.53;;;8.49;100.00
12879;BME280;20617;49.476;10.986;2024-03-22T06:53:05;98715.41;;;8.61;100.00
12879;BME280;20617;49.476;10.986;2024-03-22T06:55:06;98708.28;;;8.68;100.00
12879;BME280;20617;49.476;10.986;2024-03-22T06:57:07;98697.66;;;8.77;100.00
12879;BME280;20617;49.476;10.986;2024-03-22T06:59:10;98689.59;;;8.86;100.00
12879;BME280;20617;49.476;10.986;2024-03-22T07:01:11;98684.13;;;8.97;100.00
12879;BME280;20617;49.476;10.986;2024-03-22T07:03:12;98688.22;;;9.04;100.00
12879;BME280;20617;49.476;10.986;2024-03-22T07:05:12;98681.13;;;9.11;100.00
12879;BME280;20617;49.476;10.986;2024-03-22T07:07:13;98677.34;;;9.21;100.00
12879;BME280;20617;49.476;10.986;2024-03-22T07:09:14;98682.41;;;9.25;100.00
12879;BME280;20617;49.476;10.986;2024-03-22T07:11:15;98682.16;;;9.33;100.00
12879;BME280;20617;49.476;10.986;2024-03-22T07:13:15;98675.84;;;9.42;100.00
12879;BME280;20617;49.476;10.986;2024-03-22T07:15:19;98673.03;;;9.49;100.00
12879;BME280;20617;49.476;10.986;2024-03-22T07:17:19;98678.78;;;9.59;100.00
12879;BME280;20617;49.476;10.986;2024-03-22T07:19:22;98674.19;;;9.67;100.00
12879;BME280;20617;49.476;10.986;2024-03-22T07:21:24;98668.75;;;9.75;100.00
12879;BME280;20617;49.476;10.986;2024-03-22T07:23:24;98671.09;;;9.83;100.00
12879;BME280;20617;49.476;10.986;2024-03-22T07:25:25;98667.34;;;9.91;100.00
12879;BME280;20617;49.476;10.986;2024-03-22T07:27:26;98663.84;;;9.92;100.00
12879;BME280;20617;49.476;10.986;2024-03-22T07:29:27;98667.09;;;9.99;100.00
12879;BME280;20617;49.476;10.986;2024-03-22T07:31:30;98665.13;;;10.06;100.00
12879;BME280;20617;49.476;10.986;2024-03-22T07:33:31;98658.88;;;10.11;100.00
12879;BME280;20617;49.476;10.986;2024-03-22T07:35:34;98657.72;;;10.20;100.00
12879;BME280;20617;49.476;10.986;2024-03-22T07:37:37;98654.03;;;10.27;100.00
12879;BME280;20617;49.476;10.986;2024-03-22T07:39:37;98658.19;;;10.33;100.00
12879;BME280;20617;49.476;10.986;2024-03-22T07:41:38;98653.75;;;10.35;100.00
12879;BME280;20617;49.476;10.986;2024-03-22T07:43:41;98661.34;;;10.41;100.00
12879;BME280;20617;49.476;10.986;2024-03-22T07:45:46;98658.44;;;10.50;100.00
12879;BME280;20617;49.476;10.986;2024-03-22T07:47:49;98660.94;;;10.53;100.00
12879;BME280;20617;49.476;10.986;2024-03-22T07:49:51;98652.91;;;10.59;100.00
12879;BME280;20617;49.476;10.986;2024-03-22T07:51:53;98654.44;;;10.65;100.00
12879;BME280;20617;49.476;10.986;2024-03-22T07:53:54;98651.63;;;10.71;100.00
12879;BME280;20617;49.476;10.986;2024-03-22T07:55:55;98653.19;;;10.75;100.00
12879;BME280;20617;49.476;10.986;2024-03-22T07:57:56;98654.72;;;10.81;100.00
12879;BME280;20617;49.476;10.986;2024-03-22T07:59:59;98647.41;;;10.91;100.00
12879;BME280;20617;49.476;10.986;2024-03-22T08:01:59;98649.03;;;10.95;100.00
12879;BME280;20617;49.476;10.986;2024-03-22T08:04:04;98649.41;;;11.07;100.00
12879;BME280;20617;49.476;10.986;2024-03-22T08:06:05;98645.59;;;11.16;100.00
12879;BME280;20617;49.476;10.986;2024-03-22T08:08:06;98643.63;;;11.23;100.00
12879;BME280;20617;49.476;10.986;2024-03-22T08:10:08;98642.34;;;11.33;100.00
12879;BME280;20617;49.476;10.986;2024-03-22T08:12:10;98644.47;;;11.45;100.00
12879;BME280;20617;49.476;10.986;2024-03-22T08:14:11;98638.28;;;11.48;100.00
12879;BME280;20617;49.476;10.986;2024-03-22T08:16:12;98636.34;;;11.53;100.00
12879;BME280;20617;49.476;10.986;2024-03-22T08:18:13;98635.25;;;11.59;100.00
12879;BME280;20617;49.476;10.986;2024-03-22T08:20:16;98634.22;;;11.63;100.00
12879;BME280;20617;49.476;10.986;2024-03-22T08:22:17;98629.78;;;11.65;100.00
12879;BME280;20617;49.476;10.986;2024-03-22T08:24:18;98627.91;;;11.68;100.00
12879;BME280;20617;49.476;10.986;2024-03-22T08:26:19;98626.94;;;11.71;100.00
12879;BME280;20617;49.476;10.986;2024-03-22T08:28:20;98620.78;;;11.72;100.00
12879;BME280;20617;49.476;10.986;2024-03-22T08:30:22;98621.72;;;11.71;100.00
12879;BME280;20617;49.476;10.986;2024-03-22T08:32:23;98615.66;;;11.70;100.00
12879;BME280;20617;49.476;10.986;2024-03-22T08:34:24;98620.03;;;11.70;100.00
12879;BME280;20617;49.476;10.986;2024-03-22T08:36:29;98626.88;;;11.72;100.00
12879;BME280;20617;49.476;10.986;2024-03-22T08:38:30;98627.91;;;11.68;100.00
12879;BME280;20617;49.476;10.986;2024-03-22T08:40:31;98630.38;;;11.71;100.00
12879;BME280;20617;49.476;10.986;2024-03-22T08:42:32;98629.53;;;11.71;100.00
12879;BME280;20617;49.476;10.986;2024-03-22T08:44:35;98625.38;;;11.67;100.00
12879;BME280;20617;49.476;10.986;2024-03-22T08:46:36;98628.03;;;11.65;100.00
12879;BME280;20617;49.476;10.986;2024-03-22T08:48:36;98627.09;;;11.66;100.00
12879;BME280;20617;49.476;10.986;2024-03-22T08:50:37;98614.84;;;11.68;100.00
12879;BME280;20617;49.476;10.986;2024-03-22T08:52:41;98619.91;;;11.73;100.00
12879;BME280;20617;49.476;10.986;2024-03-22T08:54:43;98618.84;;;11.77;100.00
12879;BME280;20617;49.476;10.986;2024-03-22T08:56:44;98617.66;;;11.86;100.00
12879;BME280;20617;49.476;10.986;2024-03-22T08:58:45;98610.41;;;11.92;100.00
12879;BME280;20617;49.476;10.986;2024-03-22T09:00:46;98614.25;;;12.04;100.00
12879;BME280;20617;49.476;10.986;2024-03-22T09:02:49;98606.91;;;12.14;100.00
12879;BME280;20617;49.476;10.986;2024-03-22T09:04:50;98614.53;;;12.18;100.00
12879;BME280;20617;49.476;10.986;2024-03-22T09:06:51;98608.28;;;12.22;100.00
12879;BME280;20617;49.476;10.986;2024-03-22T09:08:54;98604.84;;;12.22;100.00
12879;BME280;20617;49.476;10.986;2024-03-22T09:10:55;98600.19;;;12.29;100.00
12879;BME280;20617;49.476;10.986;2024-03-22T09:12:56;98596.50;;;12.33;100.00
12879;BME280;20617;49.476;10.986;2024-03-22T09:14:59;98591.81;;;12.41;100.00
12879;BME280;20617;49.476;10.986;2024-03-22T09:16:59;98591.47;;;12.49;100.00
12879;BME280;20617;49.476;10.986;2024-03-22T09:19:00;98588.66;;;12.53;100.00
12879;BME280;20617;49.476;10.986;2024-03-22T09:21:01;98594.38;;;12.61;100.00
12879;BME280;20617;49.476;10.986;2024-03-22T09:23:02;98588.88;;;12.67;100.00
12879;BME280;20617;49.476;10.986;2024-03-22T09:25:07;98584.94;;;12.78;100.00
12879;BME280;20617;49.476;10.986;2024-03-22T09:27:08;98582.47;;;12.75;100.00
12879;BME280;20617;49.476;10.986;2024-03-22T09:29:09;98578.44;;;12.86;100.00
12879;BME280;20617;49.476;10.986;2024-03-22T09:31:11;98577.16;;;12.95;100.00
12879;BME280;20617;49.476;10.986;2024-03-22T09:33:12;98573.19;;;13.05;100.00
12879;BME280;20617;49.476;10.986;2024-03-22T09:35:14;98568.94;;;13.22;100.00
12879;BME280;20617;49.476;10.986;2024-03-22T09:37:15;98570.16;;;13.33;100.00
12879;BME280;20617;49.476;10.986;2024-03-22T09:39:16;98566.88;;;13.47;100.00
12879;BME280;20617;49.476;10.986;2024-03-22T09:41:24;98563.28;;;13.67;100.00
12879;BME280;20617;49.476;10.986;2024-03-22T09:43:27;98554.66;;;13.82;100.00
12879;BME280;20617;49.476;10.986;2024-03-22T09:45:31;98549.72;;;13.94;100.00
12879;BME280;20617;49.476;10.986;2024-03-22T09:47:32;98539.84;;;13.99;100.00
12879;BME280;20617;49.476;10.986;2024-03-22T09:49:34;98533.34;;;14.23;100.00
12879;BME280;20617;49.476;10.986;2024-03-22T09:51:35;98535.59;;;14.31;100.00
12879;BME280;20617;49.476;10.986;2024-03-22T09:53:38;98529.91;;;14.39;100.00
12879;BME280;20617;49.476;10.986;2024-03-22T09:55:40;98523.28;;;14.49;100.00
12879;BME280;20617;49.476;10.986;2024-03-22T09:57:44;98508.59;;;14.62;100.00
12879;BME280;20617;49.476;10.986;2024-03-22T09:59:46;98511.16;;;14.64;100.00
12879;BME280;20617;49.476;10.986;2024-03-22T10:01:49;98503.56;;;14.75;100.00
12879;BME280;20617;49.476;10.986;2024-03-22T10:03:53;98500.84;;;14.92;100.00
12879;BME280;20617;49.476;10.986;2024-03-22T10:05:54;98497.94;;;15.13;100.00
12879;BME280;20617;49.476;10.986;2024-03-22T10:07:57;98485.13;;;15.23;100.00
12879;BME280;20617;49.476;10.986;2024-03-22T10:09:58;98486.78;;;15.39;100.00
12879;BME280;20617;49.476;10.986;2024-03-22T10:11:59;98485.31;;;15.50;100.00
12879;BME280;20617;49.476;10.986;2024-03-22T10:14:03;98470.69;;;15.76;100.00
12879;BME280;20617;49.476;10.986;2024-03-22T10:16:07;98479.03;;;15.97;100.00
12879;BME280;20617;49.476;10.986;2024-03-22T10:18:11;98474.91;;;15.93;100.00
12879;BME280;20617;49.476;10.986;2024-03-22T10:20:13;98471.91;;;15.84;100.00
12879;BME280;20617;49.476;10.986;2024-03-22T10:22:16;98475.69;;;15.95;100.00
12879;BME280;20617;49.476;10.986;2024-03-22T10:24:19;98465.91;;;15.97;100.00
12879;BME280;20617;49.476;10.986;2024-03-22T10:26:20;98459.19;;;16.07;100.00
12879;BME280;20617;49.476;10.986;2024-03-22T10:28:20;98460.59;;;15.98;100.00
12879;BME280;20617;49.476;10.986;2024-03-22T10:30:24;98463.84;;;15.88;100.00
12879;BME280;20617;49.476;10.986;2024-03-22T10:32:25;98458.22;;;15.79;100.00
12879;BME280;20617;49.476;10.986;2024-03-22T10:34:29;98454.38;;;15.71;100.00